High Hill, MO

5:25 PM CDT on August 21, 2014 (GMT -0500)
KMOBIGSP1 | Change Station
CLOSE
Current Station
Personal Weather Station
Location: BIG SPRING, MO
Elevation: 553 ft
Nearby Weather Stations
Active Advisory: Heat Advisory

Elev 553 ft 38.81 °N, 91.48 °W | Updated 4 minutes ago

Clear
Clear
94.7 °F
Feels Like 105 °F
N
2.0
Wind Variable Wind from SSE
Gusts 2.0 mph

Today
High -- | Low -- °F
--% Chance of Precip.
Yesterday
High -- | Low -- °F
Precip. -- in
6:24 AM 7:51 PM
Waning Crescent, 12% visible
Pressure 29.90 in
Visibility 9.0 miles
Clouds Clear
Heat Index 105 °F
Dew Point 73 °F
Humidity 50%
Rainfall 0.00 in
Snow Depth Not available.
UV 3 out of 12
Pollen 10.60 out of 12
Air Quality Not available.
Flu Activity Not available.
METAR KFYG 212215Z AUTO 19006KT 9SM CLR 34/23 A2990 RMK AO2

More Conditions Fewer Conditions

Pressure 29.90 in
Visibility 9.0 miles
Clouds Clear
Heat Index 105 °F
Dew Point 73 °F
Humidity 50%
Rainfall 0.00 in
Snow Depth Not available.
UV 3 out of 12
Pollen 10.60 out of 12
Air Quality Not available.
Flu Activity Not available.
METAR KFYG 212215Z AUTO 19006KT 9SM CLR 34/23 A2990 RMK AO2

More Conditions Fewer Conditions

10-Day Weather Forecast

Almanac

Astronomy

Aug. 21, 2014 Rise Set
Actual Time 6:24 AM CDT 7:51 PM CDT
Civil Twilight 5:56 AM CDT 8:19 PM CDT
Nautical Twilight 5:22 AM CDT 8:53 PM CDT
Astronomical Twilight 4:47 AM CDT 9:28 PM CDT
Moon 2:56 AM CDT 5:20 PM CDT
Length of Visible Light 14h 23m
Length of Day
13h 27m
Tomorrow will be 2m 19s shorter.
Waning Crescent, 12% of the Moon is Illuminated
Today
Waning Crescent
Aug 25
New
Sep 2
First Quarter
Sep 8
Full
Sep 15
Last Quarter

Today's Extremes

State Highs State Lows

Community

WunderPhotos

Upload Photos

1,746,038 photos uploaded!

WunderBlogs® & News

Nearby

Snow Depth

Station Depth Elevation
No new snow has been reported.

Earthquake Activity

City Distance Mag. Time & Date
No recent earthquake activity has been reported nearby.
Minimum magnitude displayed is 2.5.

Coastal Water Temperatures

Place Temperature
No Stations Reporting

Nearby Weather Stations